sensor_id;sensor_type;location;lat;lon;timestamp;pressure;altitude;pressure_sealevel;temperature;humidity
46724;BME280;32463;48.298;11.620;2023-03-13T00:01:16;96003.44;;;5.31;100.00
46724;BME280;32463;48.298;11.620;2023-03-13T00:03:43;96011.00;;;5.32;100.00
46724;BME280;32463;48.298;11.620;2023-03-13T00:06:13;95995.59;;;5.32;100.00
46724;BME280;32463;48.298;11.620;2023-03-13T00:08:41;95999.91;;;5.32;100.00
46724;BME280;32463;48.298;11.620;2023-03-13T00:11:10;95997.88;;;5.35;100.00
46724;BME280;32463;48.298;11.620;2023-03-13T00:13:39;95988.81;;;5.31;100.00
46724;BME280;32463;48.298;11.620;2023-03-13T00:16:15;95985.16;;;5.34;100.00
46724;BME280;32463;48.298;11.620;2023-03-13T00:18:47;95987.47;;;5.37;100.00
46724;BME280;32463;48.298;11.620;2023-03-13T00:21:15;95978.28;;;5.34;100.00
46724;BME280;32463;48.298;11.620;2023-03-13T00:23:42;95984.22;;;5.35;100.00
46724;BME280;32463;48.298;11.620;2023-03-13T00:26:11;95978.53;;;5.31;100.00
46724;BME280;32463;48.298;11.620;2023-03-13T00:28:38;95977.06;;;5.29;100.00
46724;BME280;32463;48.298;11.620;2023-03-13T00:31:12;95977.44;;;5.24;100.00
46724;BME280;32463;48.298;11.620;2023-03-13T00:33:41;95972.56;;;5.21;100.00
46724;BME280;32463;48.298;11.620;2023-03-13T00:36:11;95958.78;;;5.13;100.00
46724;BME280;32463;48.298;11.620;2023-03-13T00:38:38;95962.28;;;5.21;100.00
46724;BME280;32463;48.298;11.620;2023-03-13T00:41:10;95947.97;;;5.19;100.00
46724;BME280;32463;48.298;11.620;2023-03-13T00:43:38;95946.34;;;5.08;100.00
46724;BME280;32463;48.298;11.620;2023-03-13T00:46:05;95940.66;;;4.95;100.00
46724;BME280;32463;48.298;11.620;2023-03-13T00:48:35;95948.22;;;4.87;100.00
46724;BME280;32463;48.298;11.620;2023-03-13T00:51:02;95943.78;;;4.89;100.00
46724;BME280;32463;48.298;11.620;2023-03-13T00:53:30;95934.56;;;4.86;100.00
46724;BME280;32463;48.298;11.620;2023-03-13T00:56:01;95945.91;;;4.84;100.00
46724;BME280;32463;48.298;11.620;2023-03-13T00:58:30;95938.75;;;4.78;100.00
46724;BME280;32463;48.298;11.620;2023-03-13T01:01:07;95939.56;;;4.78;100.00
46724;BME280;32463;48.298;11.620;2023-03-13T01:03:34;95944.41;;;4.71;100.00
46724;BME280;32463;48.298;11.620;2023-03-13T01:06:03;95948.16;;;4.58;100.00
46724;BME280;32463;48.298;11.620;2023-03-13T01:08:31;95939.75;;;4.46;100.00
46724;BME280;32463;48.298;11.620;2023-03-13T01:11:02;95935.03;;;4.51;100.00
46724;BME280;32463;48.298;11.620;2023-03-13T01:13:29;95933.25;;;4.42;100.00
46724;BME280;32463;48.298;11.620;2023-03-13T01:16:00;95935.66;;;4.34;100.00
46724;BME280;32463;48.298;11.620;2023-03-13T01:18:27;95926.94;;;4.16;100.00
46724;BME280;32463;48.298;11.620;2023-03-13T01:20:53;95927.72;;;4.06;100.00
46724;BME280;32463;48.298;11.620;2023-03-13T01:23:20;95916.34;;;3.99;100.00
46724;BME280;32463;48.298;11.620;2023-03-13T01:25:47;95923.38;;;3.97;100.00
46724;BME280;32463;48.298;11.620;2023-03-13T01:28:13;95917.13;;;3.90;100.00
46724;BME280;32463;48.298;11.620;2023-03-13T01:30:40;95910.88;;;3.83;100.00
46724;BME280;32463;48.298;11.620;2023-03-13T01:33:06;95908.25;;;3.94;100.00
46724;BME280;32463;48.298;11.620;2023-03-13T01:35:33;95908.38;;;4.02;100.00
46724;BME280;32463;48.298;11.620;2023-03-13T01:37:59;95908.13;;;4.05;100.00
46724;BME280;32463;48.298;11.620;2023-03-13T01:40:25;95912.56;;;3.94;100.00
46724;BME280;32463;48.298;11.620;2023-03-13T01:42:54;95915.13;;;3.94;100.00
46724;BME280;32463;48.298;11.620;2023-03-13T01:51:29;95918.38;;;3.75;100.00
46724;BME280;32463;48.298;11.620;2023-03-13T01:54:05;95909.41;;;3.60;100.00
46724;BME280;32463;48.298;11.620;2023-03-13T01:56:48;95902.91;;;3.56;100.00
46724;BME280;32463;48.298;11.620;2023-03-13T01:59:22;95891.59;;;3.58;100.00
46724;BME280;32463;48.298;11.620;2023-03-13T02:01:52;95895.47;;;3.53;100.00
46724;BME280;32463;48.298;11.620;2023-03-13T02:04:22;95885.66;;;3.58;100.00
46724;BME280;32463;48.298;11.620;2023-03-13T02:06:51;95881.66;;;3.65;100.00
46724;BME280;32463;48.298;11.620;2023-03-13T02:09:23;95889.13;;;3.78;100.00
46724;BME280;32463;48.298;11.620;2023-03-13T02:12:15;95887.41;;;3.88;100.00
46724;BME280;32463;48.298;11.620;2023-03-13T02:14:44;95879.09;;;3.95;100.00
46724;BME280;32463;48.298;11.620;2023-03-13T02:17:12;95884.38;;;4.03;100.00
46724;BME280;32463;48.298;11.620;2023-03-13T02:19:45;95868.72;;;4.06;100.00
46724;BME280;32463;48.298;11.620;2023-03-13T02:27:33;95880.44;;;3.99;100.00
46724;BME280;32463;48.298;11.620;2023-03-13T02:30:00;95880.72;;;3.96;100.00
46724;BME280;32463;48.298;11.620;2023-03-13T02:32:28;95890.44;;;4.02;100.00
46724;BME280;32463;48.298;11.620;2023-03-13T02:35:01;95876.94;;;4.00;100.00
46724;BME280;32463;48.298;11.620;2023-03-13T02:39:59;95883.97;;;4.08;100.00
46724;BME280;32463;48.298;11.620;2023-03-13T02:42:27;95886.41;;;4.10;100.00
46724;BME280;32463;48.298;11.620;2023-03-13T02:44:54;95881.03;;;4.13;100.00
46724;BME280;32463;48.298;11.620;2023-03-13T02:47:22;95879.72;;;4.18;100.00
46724;BME280;32463;48.298;11.620;2023-03-13T02:49:49;95875.69;;;4.25;100.00
46724;BME280;32463;48.298;11.620;2023-03-13T02:54:49;95884.88;;;4.28;100.00
46724;BME280;32463;48.298;11.620;2023-03-13T02:57:16;95883.22;;;4.17;100.00
46724;BME280;32463;48.298;11.620;2023-03-13T02:59:43;95886.41;;;4.10;100.00
46724;BME280;32463;48.298;11.620;2023-03-13T03:02:09;95879.66;;;4.09;100.00
46724;BME280;32463;48.298;11.620;2023-03-13T03:04:36;95881.53;;;4.06;100.00
46724;BME280;32463;48.298;11.620;2023-03-13T03:07:02;95878.28;;;4.04;100.00
46724;BME280;32463;48.298;11.620;2023-03-13T03:09:31;95878.56;;;4.01;100.00
46724;BME280;32463;48.298;11.620;2023-03-13T03:11:58;95889.63;;;4.02;100.00
46724;BME280;32463;48.298;11.620;2023-03-13T03:14:24;95885.31;;;4.02;100.00
46724;BME280;32463;48.298;11.620;2023-03-13T03:16:51;95885.31;;;4.02;100.00
46724;BME280;32463;48.298;11.620;2023-03-13T03:19:17;95889.06;;;3.98;100.00
46724;BME280;32463;48.298;11.620;2023-03-13T03:21:44;95889.88;;;3.99;100.00
46724;BME280;32463;48.298;11.620;2023-03-13T03:24:14;95889.63;;;4.02;100.00
46724;BME280;32463;48.298;11.620;2023-03-13T03:26:40;95898.25;;;4.01;100.00
46724;BME280;32463;48.298;11.620;2023-03-13T03:29:07;95893.69;;;4.04;100.00
46724;BME280;32463;48.298;11.620;2023-03-13T03:31:35;95892.88;;;4.04;100.00
46724;BME280;32463;48.298;11.620;2023-03-13T03:34:02;95891.53;;;4.10;100.00
46724;BME280;32463;48.298;11.620;2023-03-13T03:36:28;95890.88;;;4.07;100.00
46724;BME280;32463;48.298;11.620;2023-03-13T03:38:55;95891.53;;;4.10;100.00
46724;BME280;32463;48.298;11.620;2023-03-13T03:41:21;95895.06;;;4.09;100.00
46724;BME280;32463;48.298;11.620;2023-03-13T03:43:48;95883.84;;;4.10;100.00
46724;BME280;32463;48.298;11.620;2023-03-13T03:46:14;95881.28;;;4.10;100.00
46724;BME280;32463;48.298;11.620;2023-03-13T03:48:41;95875.63;;;4.16;100.00
46724;BME280;32463;48.298;11.620;2023-03-13T03:51:08;95867.56;;;4.20;100.00
46724;BME280;32463;48.298;11.620;2023-03-13T03:53:34;95856.50;;;4.20;100.00
46724;BME280;32463;48.298;11.620;2023-03-13T03:56:01;95866.34;;;4.24;100.00
46724;BME280;32463;48.298;11.620;2023-03-13T03:58:28;95862.31;;;4.22;100.00
46724;BME280;32463;48.298;11.620;2023-03-13T04:00:58;95860.69;;;4.21;100.00
46724;BME280;32463;48.298;11.620;2023-03-13T04:03:25;95850.00;;;4.16;100.00
46724;BME280;32463;48.298;11.620;2023-03-13T04:05:51;95844.84;;;4.16;100.00
46724;BME280;32463;48.298;11.620;2023-03-13T04:08:18;95846.91;;;4.22;100.00
46724;BME280;32463;48.298;11.620;2023-03-13T04:10:45;95832.19;;;4.24;100.00
46724;BME280;32463;48.298;11.620;2023-03-13T04:13:11;95833.53;;;4.18;100.00
46724;BME280;32463;48.298;11.620;2023-03-13T04:15:39;95829.34;;;4.17;100.00
46724;BME280;32463;48.298;11.620;2023-03-13T04:18:05;95820.84;;;4.17;100.00
46724;BME280;32463;48.298;11.620;2023-03-13T04:20:32;95826.94;;;4.25;100.00
46724;BME280;32463;48.298;11.620;2023-03-13T04:22:58;95815.97;;;4.33;100.00
46724;BME280;32463;48.298;11.620;2023-03-13T04:25:25;95811.28;;;4.38;100.00
46724;BME280;32463;48.298;11.620;2023-03-13T04:27:51;95810.06;;;4.42;100.00
46724;BME280;32463;48.298;11.620;2023-03-13T04:30:18;95803.03;;;4.44;100.00
46724;BME280;32463;48.298;11.620;2023-03-13T04:32:45;95791.56;;;4.48;100.00
46724;BME280;32463;48.298;11.620;2023-03-13T04:35:11;95793.72;;;4.53;100.00
46724;BME280;32463;48.298;11.620;2023-03-13T04:37:38;95791.44;;;4.50;100.00
46724;BME280;32463;48.298;11.620;2023-03-13T04:40:05;95786.59;;;4.56;100.00
46724;BME280;32463;48.298;11.620;2023-03-13T04:42:32;95788.19;;;4.57;100.00
46724;BME280;32463;48.298;11.620;2023-03-13T04:44:58;95771.19;;;4.56;100.00
46724;BME280;32463;48.298;11.620;2023-03-13T04:47:24;95773.44;;;4.59;100.00
46724;BME280;32463;48.298;11.620;2023-03-13T04:49:51;95767.66;;;4.57;100.00
46724;BME280;32463;48.298;11.620;2023-03-13T04:52:17;95763.03;;;4.61;100.00
46724;BME280;32463;48.298;11.620;2023-03-13T04:54:44;95757.63;;;4.64;100.00
46724;BME280;32463;48.298;11.620;2023-03-13T04:57:10;95761.16;;;4.63;100.00
46724;BME280;32463;48.298;11.620;2023-03-13T04:59:37;95764.00;;;4.60;100.00
46724;BME280;32463;48.298;11.620;2023-03-13T05:02:04;95751.97;;;4.60;100.00
46724;BME280;32463;48.298;11.620;2023-03-13T05:04:30;95754.44;;;4.52;100.00
46724;BME280;32463;48.298;11.620;2023-03-13T05:06:57;95766.56;;;4.60;100.00
46724;BME280;32463;48.298;11.620;2023-03-13T05:09:23;95759.53;;;4.62;100.00
46724;BME280;32463;48.298;11.620;2023-03-13T05:11:50;95759.25;;;4.65;100.00
46724;BME280;32463;48.298;11.620;2023-03-13T05:14:17;95746.69;;;4.71;100.00
46724;BME280;32463;48.298;11.620;2023-03-13T05:16:44;95756.03;;;4.72;100.00
46724;BME280;32463;48.298;11.620;2023-03-13T05:19:10;95745.47;;;4.76;100.00
46724;BME280;32463;48.298;11.620;2023-03-13T05:21:37;95747.91;;;4.77;100.00
46724;BME280;32463;48.298;11.620;2023-03-13T05:24:03;95737.91;;;4.84;100.00
46724;BME280;32463;48.298;11.620;2023-03-13T05:26:30;95737.34;;;4.90;100.00
46724;BME280;32463;48.298;11.620;2023-03-13T05:28:56;95747.34;;;4.93;100.00
46724;BME280;32463;48.298;11.620;2023-03-13T05:31:23;95732.47;;;4.96;100.00
46724;BME280;32463;48.298;11.620;2023-03-13T05:33:49;95726.22;;;4.99;100.00
46724;BME280;32463;48.298;11.620;2023-03-13T05:36:16;95736.66;;;4.97;100.00
46724;BME280;32463;48.298;11.620;2023-03-13T05:38:42;95737.84;;;5.03;100.00
46724;BME280;32463;48.298;11.620;2023-03-13T05:41:08;95711.06;;;5.05;100.00
46724;BME280;32463;48.298;11.620;2023-03-13T05:43:35;95716.47;;;5.12;100.00
46724;BME280;32463;48.298;11.620;2023-03-13T05:46:01;95726.47;;;5.15;100.00
46724;BME280;32463;48.298;11.620;2023-03-13T05:48:28;95716.56;;;5.20;100.00
46724;BME280;32463;48.298;11.620;2023-03-13T05:50:54;95708.53;;;5.33;100.00
46724;BME280;32463;48.298;11.620;2023-03-13T05:53:21;95699.59;;;5.37;100.00
46724;BME280;32463;48.298;11.620;2023-03-13T05:55:47;95703.91;;;5.46;100.00
46724;BME280;32463;48.298;11.620;2023-03-13T05:58:14;95699.63;;;5.55;100.00
46724;BME280;32463;48.298;11.620;2023-03-13T06:00:40;95690.84;;;5.57;100.00
46724;BME280;32463;48.298;11.620;2023-03-13T06:03:08;95712.97;;;5.68;100.00
46724;BME280;32463;48.298;11.620;2023-03-13T06:05:34;95704.31;;;5.69;100.00
46724;BME280;32463;48.298;11.620;2023-03-13T06:08:01;95695.38;;;5.73;100.00
46724;BME280;32463;48.298;11.620;2023-03-13T06:10:28;95719.09;;;5.85;100.00
46724;BME280;32463;48.298;11.620;2023-03-13T06:12:54;95707.69;;;5.97;100.00
46724;BME280;32463;48.298;11.620;2023-03-13T06:15:22;95698.00;;;6.08;100.00
46724;BME280;32463;48.298;11.620;2023-03-13T06:17:48;95693.88;;;6.16;100.00
46724;BME280;32463;48.298;11.620;2023-03-13T06:20:15;95697.34;;;6.24;100.00
46724;BME280;32463;48.298;11.620;2023-03-13T06:22:42;95683.06;;;6.30;100.00
46724;BME280;32463;48.298;11.620;2023-03-13T06:25:08;95679.25;;;6.34;100.00
46724;BME280;32463;48.298;11.620;2023-03-13T06:27:35;95663.22;;;6.40;100.00
46724;BME280;32463;48.298;11.620;2023-03-13T06:30:03;95677.16;;;6.55;100.00
46724;BME280;32463;48.298;11.620;2023-03-13T06:32:29;95670.44;;;6.62;100.00
46724;BME280;32463;48.298;11.620;2023-03-13T06:34:56;95675.97;;;6.67;100.00
46724;BME280;32463;48.298;11.620;2023-03-13T06:37:23;95665.03;;;6.73;100.00
46724;BME280;32463;48.298;11.620;2023-03-13T06:39:49;95663.94;;;6.76;100.00
46724;BME280;32463;48.298;11.620;2023-03-13T06:42:16;95667.38;;;6.85;100.00
46724;BME280;32463;48.298;11.620;2023-03-13T06:44:42;95660.97;;;6.89;100.00
46724;BME280;32463;48.298;11.620;2023-03-13T06:47:09;95658.78;;;7.02;100.00
46724;BME280;32463;48.298;11.620;2023-03-13T06:49:35;95661.09;;;7.13;100.00
46724;BME280;32463;48.298;11.620;2023-03-13T06:52:02;95648.34;;;7.12;100.00
46724;BME280;32463;48.298;11.620;2023-03-13T06:54:29;95665.03;;;7.25;100.00
46724;BME280;32463;48.298;11.620;2023-03-13T06:56:55;95660.69;;;7.34;100.00
46724;BME280;32463;48.298;11.620;2023-03-13T06:59:22;95652.13;;;7.25;100.00
46724;BME280;32463;48.298;11.620;2023-03-13T07:01:48;95645.31;;;7.16;100.00
46724;BME280;32463;48.298;11.620;2023-03-13T07:04:15;95659.47;;;7.12;100.00
46724;BME280;32463;48.298;11.620;2023-03-13T07:06:42;95658.00;;;7.09;100.00
46724;BME280;32463;48.298;11.620;2023-03-13T07:09:08;95655.63;;;7.16;100.00
46724;BME280;32463;48.298;11.620;2023-03-13T07:11:35;95659.06;;;7.25;100.00
46724;BME280;32463;48.298;11.620;2023-03-13T07:14:02;95643.44;;;7.34;100.00
46724;BME280;32463;48.298;11.620;2023-03-13T07:16:29;95648.47;;;7.44;100.00
46724;BME280;32463;48.298;11.620;2023-03-13T07:18:55;95652.25;;;7.66;100.00
46724;BME280;32463;48.298;11.620;2023-03-13T07:21:22;95655.84;;;7.81;100.00
46724;BME280;32463;48.298;11.620;2023-03-13T07:23:48;95660.38;;;7.87;100.00
46724;BME280;32463;48.298;11.620;2023-03-13T07:26:15;95647.47;;;7.95;100.00
46724;BME280;32463;48.298;11.620;2023-03-13T07:28:42;95645.56;;;8.14;100.00
46724;BME280;32463;48.298;11.620;2023-03-13T07:31:18;95658.19;;;8.25;100.00
46724;BME280;32463;48.298;11.620;2023-03-13T07:33:46;95663.19;;;8.34;100.00
46724;BME280;32463;48.298;11.620;2023-03-13T07:36:13;95663.16;;;8.26;100.00
46724;BME280;32463;48.298;11.620;2023-03-13T07:38:41;95653.31;;;8.05;100.00
46724;BME280;32463;48.298;11.620;2023-03-13T07:41:11;95641.97;;;7.82;100.00
46724;BME280;32463;48.298;11.620;2023-03-13T07:43:38;95636.94;;;7.64;100.00
46724;BME280;32463;48.298;11.620;2023-03-13T07:46:07;95660.28;;;7.55;100.00
46724;BME280;32463;48.298;11.620;2023-03-13T07:48:37;95656.69;;;7.39;100.00
46724;BME280;32463;48.298;11.620;2023-03-13T07:51:16;95637.28;;;7.19;100.00
46724;BME280;32463;48.298;11.620;2023-03-13T07:53:43;95641.69;;;7.35;100.00
46724;BME280;32463;48.298;11.620;2023-03-13T07:56:13;95645.63;;;7.55;100.00
46724;BME280;32463;48.298;11.620;2023-03-13T07:58:41;95646.84;;;7.85;100.00
46724;BME280;32463;48.298;11.620;2023-03-13T08:01:15;95643.66;;;8.16;100.00
46724;BME280;32463;48.298;11.620;2023-03-13T08:03:42;95628.97;;;8.32;100.00
46724;BME280;32463;48.298;11.620;2023-03-13T08:06:16;95639.00;;;8.52;100.00
46724;BME280;32463;48.298;11.620;2023-03-13T08:08:43;95635.91;;;8.64;100.00
46724;BME280;32463;48.298;11.620;2023-03-13T08:11:22;95626.94;;;8.99;100.00
46724;BME280;32463;48.298;11.620;2023-03-13T08:13:50;95620.84;;;9.31;100.00
46724;BME280;32463;48.298;11.620;2023-03-13T08:16:28;95630.59;;;9.60;100.00
46724;BME280;32463;48.298;11.620;2023-03-13T08:18:57;95638.56;;;9.82;100.00
46724;BME280;32463;48.298;11.620;2023-03-13T08:21:28;95638.84;;;9.87;100.00
46724;BME280;32463;48.298;11.620;2023-03-13T08:23:57;95624.31;;;10.08;100.00
46724;BME280;32463;48.298;11.620;2023-03-13T08:26:27;95646.91;;;10.23;100.00
46724;BME280;32463;48.298;11.620;2023-03-13T08:28:57;95639.41;;;10.28;100.00
46724;BME280;32463;48.298;11.620;2023-03-13T08:31:29;95634.59;;;10.25;100.00
46724;BME280;32463;48.298;11.620;2023-03-13T08:33:56;95622.72;;;10.30;97.74
46724;BME280;32463;48.298;11.620;2023-03-13T08:36:30;95639.63;;;10.41;96.32
46724;BME280;32463;48.298;11.620;2023-03-13T08:38:59;95633.75;;;10.47;93.12
46724;BME280;32463;48.298;11.620;2023-03-13T08:41:28;95642.72;;;10.59;91.17
46724;BME280;32463;48.298;11.620;2023-03-13T08:43:55;95623.25;;;10.63;85.50
46724;BME280;32463;48.298;11.620;2023-03-13T08:46:23;95633.75;;;10.85;82.97
46724;BME280;32463;48.298;11.620;2023-03-13T08:48:50;95635.72;;;11.12;81.62
46724;BME280;32463;48.298;11.620;2023-03-13T08:51:19;95639.13;;;11.27;83.62
46724;BME280;32463;48.298;11.620;2023-03-13T08:53:46;95624.25;;;11.51;80.88
46724;BME280;32463;48.298;11.620;2023-03-13T08:56:16;95625.00;;;11.66;77.78
46724;BME280;32463;48.298;11.620;2023-03-13T08:58:43;95635.75;;;11.63;76.96
46724;BME280;32463;48.298;11.620;2023-03-13T09:01:14;95613.41;;;11.98;77.34
46724;BME280;32463;48.298;11.620;2023-03-13T09:03:41;95629.56;;;12.14;76.67
46724;BME280;32463;48.298;11.620;2023-03-13T09:06:09;95620.41;;;12.19;75.05
46724;BME280;32463;48.298;11.620;2023-03-13T09:08:36;95613.28;;;12.76;72.01
46724;BME280;32463;48.298;11.620;2023-03-13T09:11:08;95614.09;;;13.39;70.90
46724;BME280;32463;48.298;11.620;2023-03-13T09:13:38;95612.59;;;13.78;69.16
46724;BME280;32463;48.298;11.620;2023-03-13T09:16:07;95610.03;;;13.30;68.18
46724;BME280;32463;48.298;11.620;2023-03-13T09:18:35;95606.34;;;13.18;72.40
46724;BME280;32463;48.298;11.620;2023-03-13T09:21:04;95595.97;;;13.25;73.20
46724;BME280;32463;48.298;11.620;2023-03-13T09:23:31;95598.03;;;13.36;71.61
46724;BME280;32463;48.298;11.620;2023-03-13T09:25:58;95587.00;;;13.88;71.42
46724;BME280;32463;48.298;11.620;2023-03-13T09:28:25;95582.63;;;14.15;68.01
46724;BME280;32463;48.298;11.620;2023-03-13T09:30:53;95583.88;;;14.52;66.10
46724;BME280;32463;48.298;11.620;2023-03-13T09:33:20;95580.47;;;14.45;64.29
46724;BME280;32463;48.298;11.620;2023-03-13T09:35:48;95583.06;;;14.71;61.27
46724;BME280;32463;48.298;11.620;2023-03-13T09:38:21;95576.22;;;14.97;62.89
46724;BME280;32463;48.298;11.620;2023-03-13T09:40:48;95574.81;;;14.74;59.09
46724;BME280;32463;48.298;11.620;2023-03-13T09:45:53;95560.72;;;15.02;60.38
46724;BME280;32463;48.298;11.620;2023-03-13T09:48:36;95564.09;;;15.22;59.54
46724;BME280;32463;48.298;11.620;2023-03-13T09:51:15;95559.50;;;15.62;58.54
46724;BME280;32463;48.298;11.620;2023-03-13T09:53:45;95565.44;;;15.89;58.01
46724;BME280;32463;48.298;11.620;2023-03-13T09:56:16;95567.69;;;16.10;55.48
46724;BME280;32463;48.298;11.620;2023-03-13T09:58:51;95547.66;;;15.98;55.10
46724;BME280;32463;48.298;11.620;2023-03-13T10:01:22;95555.31;;;15.93;55.43
46724;BME280;32463;48.298;11.620;2023-03-13T10:06:46;95535.72;;;15.77;55.08
46724;BME280;32463;48.298;11.620;2023-03-13T10:09:17;95533.78;;;15.66;55.45
46724;BME280;32463;48.298;11.620;2023-03-13T10:11:55;95536.66;;;15.44;56.15
46724;BME280;32463;48.298;11.620;2023-03-13T10:19:39;95513.75;;;15.46;57.02
46724;BME280;32463;48.298;11.620;2023-03-13T10:22:13;95518.69;;;15.23;57.12
46724;BME280;32463;48.298;11.620;2023-03-13T10:25:02;95517.38;;;15.45;57.23
46724;BME280;32463;48.298;11.620;2023-03-13T10:27:29;95510.06;;;15.61;57.05
46724;BME280;32463;48.298;11.620;2023-03-13T10:29:56;95502.34;;;15.79;56.36
46724;BME280;32463;48.298;11.620;2023-03-13T10:32:22;95502.91;;;16.37;55.61
46724;BME280;32463;48.298;11.620;2023-03-13T10:34:57;95506.00;;;16.77;54.70
46724;BME280;32463;48.298;11.620;2023-03-13T10:37:30;95498.72;;;16.98;53.96
46724;BME280;32463;48.298;11.620;2023-03-13T10:40:10;95492.16;;;16.89;54.21
46724;BME280;32463;48.298;11.620;2023-03-13T10:42:42;95479.38;;;16.37;55.67
46724;BME280;32463;48.298;11.620;2023-03-13T10:45:17;95489.03;;;16.37;56.37
46724;BME280;32463;48.298;11.620;2023-03-13T10:47:44;95495.91;;;16.31;55.85
46724;BME280;32463;48.298;11.620;2023-03-13T10:50:18;95488.53;;;16.46;56.76
46724;BME280;32463;48.298;11.620;2023-03-13T10:52:47;95479.59;;;16.54;56.18
46724;BME280;32463;48.298;11.620;2023-03-13T10:55:22;95485.91;;;16.71;56.30
46724;BME280;32463;48.298;11.620;2023-03-13T11:00:32;95483.66;;;17.11;55.18
46724;BME280;32463;48.298;11.620;2023-03-13T11:03:04;95491.13;;;17.26;54.93
46724;BME280;32463;48.298;11.620;2023-03-13T11:05:39;95484.88;;;17.27;54.84
46724;BME280;32463;48.298;11.620;2023-03-13T11:08:18;95469.97;;;16.91;54.93
46724;BME280;32463;48.298;11.620;2023-03-13T11:11:00;95471.00;;;16.72;56.00
46724;BME280;32463;48.298;11.620;2023-03-13T11:13:38;95473.06;;;16.63;56.15
46724;BME280;32463;48.298;11.620;2023-03-13T11:16:27;95471.06;;;16.65;56.63
46724;BME280;32463;48.298;11.620;2023-03-13T11:22:00;95471.47;;;16.44;56.79
46724;BME280;32463;48.298;11.620;2023-03-13T11:24:40;95457.81;;;16.60;56.29
46724;BME280;32463;48.298;11.620;2023-03-13T11:30:00;95468.44;;;17.80;53.50
46724;BME280;32463;48.298;11.620;2023-03-13T11:32:50;95469.31;;;17.74;52.79
46724;BME280;32463;48.298;11.620;2023-03-13T11:35:25;95463.25;;;18.03;52.34
46724;BME280;32463;48.298;11.620;2023-03-13T11:37:59;95452.47;;;17.70;52.45
46724;BME280;32463;48.298;11.620;2023-03-13T11:40:37;95452.75;;;18.03;51.62
46724;BME280;32463;48.298;11.620;2023-03-13T11:43:27;95462.81;;;18.18;51.57
46724;BME280;32463;48.298;11.620;2023-03-13T11:48:44;95451.53;;;18.64;49.74
46724;BME280;32463;48.298;11.620;2023-03-13T11:56:58;95431.50;;;18.87;48.92
46724;BME280;32463;48.298;11.620;2023-03-13T11:59:56;95418.88;;;19.12;48.35
46724;BME280;32463;48.298;11.620;2023-03-13T12:02:32;95417.47;;;18.81;48.57
46724;BME280;32463;48.298;11.620;2023-03-13T12:05:03;95414.44;;;18.26;50.77
46724;BME280;32463;48.298;11.620;2023-03-13T12:07:40;95406.75;;;17.77;50.83
46724;BME280;32463;48.298;11.620;2023-03-13T12:10:21;95400.75;;;18.24;50.25
46724;BME280;32463;48.298;11.620;2023-03-13T12:12:59;95409.84;;;18.79;49.68
46724;BME280;32463;48.298;11.620;2023-03-13T12:15:47;95391.69;;;18.66;49.23
46724;BME280;32463;48.298;11.620;2023-03-13T12:21:10;95395.44;;;19.50;47.70
46724;BME280;32463;48.298;11.620;2023-03-13T12:26:11;95378.88;;;19.83;47.07
46724;BME280;32463;48.298;11.620;2023-03-13T12:35:00;95369.13;;;21.54;44.03
46724;BME280;32463;48.298;11.620;2023-03-13T12:40:32;95358.72;;;21.42;44.39
46724;BME280;32463;48.298;11.620;2023-03-13T12:43:30;95342.56;;;21.97;44.01
46724;BME280;32463;48.298;11.620;2023-03-13T12:59:07;95308.56;;;19.79;48.02
46724;BME280;32463;48.298;11.620;2023-03-13T13:01:44;95307.41;;;20.96;46.61
46724;BME280;32463;48.298;11.620;2023-03-13T13:04:16;95303.38;;;20.23;46.83
46724;BME280;32463;48.298;11.620;2023-03-13T13:09:34;95306.84;;;20.67;46.49
46724;BME280;32463;48.298;11.620;2023-03-13T13:12:17;95293.63;;;20.40;47.39
46724;BME280;32463;48.298;11.620;2023-03-13T13:22:54;95291.00;;;20.40;48.29
46724;BME280;32463;48.298;11.620;2023-03-13T13:25:29;95283.03;;;21.10;45.91
46724;BME280;32463;48.298;11.620;2023-03-13T13:28:10;95271.50;;;20.90;46.10
46724;BME280;32463;48.298;11.620;2023-03-13T13:30:37;95265.75;;;20.93;46.01
46724;BME280;32463;48.298;11.620;2023-03-13T13:38:35;95249.16;;;22.56;44.08
46724;BME280;32463;48.298;11.620;2023-03-13T13:43:39;95245.06;;;22.23;42.93
46724;BME280;32463;48.298;11.620;2023-03-13T13:49:12;95233.56;;;22.54;41.99
46724;BME280;32463;48.298;11.620;2023-03-13T13:52:16;95229.31;;;22.48;42.72
46724;BME280;32463;48.298;11.620;2023-03-13T13:57:35;95206.34;;;22.54;42.21
46724;BME280;32463;48.298;11.620;2023-03-13T14:00:24;95212.34;;;22.24;41.95
46724;BME280;32463;48.298;11.620;2023-03-13T14:02:54;95200.53;;;21.89;43.51
46724;BME280;32463;48.298;11.620;2023-03-13T14:05:26;95200.78;;;21.82;43.84
46724;BME280;32463;48.298;11.620;2023-03-13T14:07:56;95201.97;;;21.60;44.17
46724;BME280;32463;48.298;11.620;2023-03-13T14:10:38;95186.50;;;21.78;43.86
46724;BME280;32463;48.298;11.620;2023-03-13T14:13:15;95190.53;;;20.53;46.50
46724;BME280;32463;48.298;11.620;2023-03-13T14:15:51;95180.13;;;20.14;46.82
46724;BME280;32463;48.298;11.620;2023-03-13T14:23:37;95150.84;;;19.45;49.36
46724;BME280;32463;48.298;11.620;2023-03-13T14:26:27;95147.06;;;19.20;50.23
46724;BME280;32463;48.298;11.620;2023-03-13T14:28:59;95141.78;;;19.36;50.37
46724;BME280;32463;48.298;11.620;2023-03-13T14:31:37;95139.50;;;19.62;49.69
46724;BME280;32463;48.298;11.620;2023-03-13T14:34:06;95136.44;;;19.70;49.39
46724;BME280;32463;48.298;11.620;2023-03-13T14:36:52;95134.72;;;19.59;49.43
46724;BME280;32463;48.298;11.620;2023-03-13T14:39:43;95122.63;;;19.58;49.17
46724;BME280;32463;48.298;11.620;2023-03-13T14:42:12;95120.25;;;19.39;48.87
46724;BME280;32463;48.298;11.620;2023-03-13T14:44:39;95104.97;;;19.36;48.54
46724;BME280;32463;48.298;11.620;2023-03-13T14:47:23;95108.03;;;19.28;48.86